Time;durP1;ratioP1;P1;durP2;ratioP2;P2;SDS_P1;SDS_P2;PMS_P1;PMS_P2;Temp;Humidity;BMP_temperature;BMP_pressure;BME280_temperature;BME280_humidity;BME280_pressure;Samples;Min_cycle;Max_cycle;Signal;HPM_P1;HPM_P2
2023/09/08 00:00:37;;;;;;;10.23;6.93;;;21.30;99.90;;;;;;6085887;23;20009;-91
2023/09/08 00:03:04;;;;;;;11.27;6.53;;;21.30;99.90;;;;;;6110016;23;20041;-90
2023/09/08 00:05:42;;;;;;;;;;;;;;;;;;;;;
2023/09/08 00:08:19;;;;;;;8.60;6.72;;;21.20;99.90;;;;;;6134402;23;20031;-91
2023/09/08 00:10:50;;;;;;;9.82;7.00;;;21.20;99.90;;;;;;6110592;23;20009;-90
2023/09/08 00:13:20;;;;;;;10.52;6.63;;;21.20;99.90;;;;;;6112004;23;20009;-91
2023/09/08 00:15:46;;;;;;;9.88;6.80;;;21.20;99.90;;;;;;6087675;23;20010;-90
2023/09/08 00:18:22;;;;;;;11.32;6.88;;;21.10;99.90;;;;;;6113786;23;20013;-90
2023/09/08 00:20:52;;;;;;;9.73;6.90;;;21.10;99.90;;;;;;6089353;23;20087;-89
2023/09/08 00:23:18;;;;;;;13.25;7.22;;;21.10;99.90;;;;;;6089438;23;20028;-90
2023/09/08 00:25:44;;;;;;;9.55;6.53;;;21.10;99.90;;;;;;6111602;23;20005;-90
2023/09/08 00:28:12;;;;;;;12.32;6.70;;;21.00;99.90;;;;;;6112811;23;20010;-91
2023/09/08 00:30:43;;;;;;;9.88;7.43;;;21.00;99.90;;;;;;6136546;23;20016;-91
2023/09/08 00:33:19;;;;;;;10.45;6.85;;;21.00;99.90;;;;;;6088100;23;20029;-90
2023/09/08 00:35:53;;;;;;;9.95;7.25;;;21.00;99.90;;;;;;6112739;23;20423;-90
2023/09/08 00:38:22;;;;;;;8.90;6.75;;;21.00;99.90;;;;;;6113080;23;20006;-91
2023/09/08 00:40:52;;;;;;;8.48;6.88;;;20.90;99.90;;;;;;6113400;23;20402;-90
2023/09/08 00:43:25;;;;;;;9.23;7.32;;;20.90;99.90;;;;;;6162966;23;20006;-90
2023/09/08 00:45:52;;;;;;;14.40;7.55;;;20.90;99.90;;;;;;6113339;23;20017;-90
2023/09/08 00:48:21;;;;;;;14.32;7.10;;;20.80;99.90;;;;;;6113255;23;20006;-91
2023/09/08 00:50:49;;;;;;;10.55;7.35;;;20.80;99.90;;;;;;6137499;23;20317;-90
2023/09/08 00:53:16;;;;;;;10.10;7.10;;;20.80;99.90;;;;;;6137523;23;20036;-91
2023/09/08 00:55:44;;;;;;;10.98;7.72;;;20.80;99.90;;;;;;6113334;23;20064;-90
2023/09/08 00:58:13;;;;;;;10.02;7.10;;;20.80;99.90;;;;;;6067334;23;20020;-91
2023/09/08 01:00:48;;;;;;;11.77;7.95;;;20.80;99.90;;;;;;6116082;23;20006;-90
2023/09/08 01:03:16;;;;;;;10.13;7.38;;;20.70;99.90;;;;;;6116238;23;20014;-90
2023/09/08 01:05:46;;;;;;;9.82;7.32;;;20.70;99.90;;;;;;6090937;23;20449;-89
2023/09/08 01:08:18;;;;;;;10.52;7.13;;;20.70;99.90;;;;;;6115686;23;20009;-90
2023/09/08 01:10:50;;;;;;;10.73;7.57;;;20.60;99.90;;;;;;6116154;23;20006;-90
2023/09/08 01:13:24;;;;;;;9.60;7.97;;;20.60;99.90;;;;;;6094939;23;20009;-90
2023/09/08 01:15:52;;;;;;;11.50;7.35;;;20.60;99.90;;;;;;6113999;23;20032;-90
2023/09/08 01:18:20;;;;;;;10.00;8.23;;;20.60;99.90;;;;;;6065228;23;20016;-89
2023/09/08 01:20:58;;;;;;;14.63;8.60;;;20.50;99.90;;;;;;6112160;23;20088;-89
2023/09/08 01:23:45;;;;;;;9.40;7.97;;;20.60;99.90;;;;;;6113484;23;20009;-89
2023/09/08 01:26:20;;;;;;;12.75;8.40;;;20.50;99.90;;;;;;6138706;23;20011;-90
2023/09/08 01:29:07;;;;;;;14.07;9.35;;;20.50;99.90;;;;;;6115640;23;20343;-90
2023/09/08 01:31:38;;;;;;;17.30;9.80;;;20.40;99.90;;;;;;6111810;23;20010;-90
2023/09/08 01:34:08;;;;;;;12.30;8.63;;;20.40;99.90;;;;;;6162952;23;20021;-91
2023/09/08 01:36:37;;;;;;;16.55;14.27;;;20.40;99.90;;;;;;6137296;23;20468;-90
2023/09/08 01:39:10;;;;;;;14.25;12.25;;;20.40;99.90;;;;;;6134882;23;20037;-89
2023/09/08 01:41:39;;;;;;;17.40;13.93;;;20.40;99.90;;;;;;6119664;23;20406;-89
2023/09/08 01:44:12;;;;;;;13.95;11.80;;;20.40;99.90;;;;;;6119515;23;20035;-89
2023/09/08 01:46:41;;;;;;;13.30;10.50;;;20.40;99.90;;;;;;6139082;23;20141;-90
2023/09/08 01:49:12;;;;;;;14.63;10.63;;;20.30;99.90;;;;;;6158745;23;19997;-89
2023/09/08 01:51:42;;;;;;;11.75;8.88;;;20.30;99.90;;;;;;6133999;23;20052;-90
2023/09/08 01:54:09;;;;;;;9.93;8.68;;;20.30;99.90;;;;;;6096267;23;20278;-90
2023/09/08 01:56:44;;;;;;;10.65;8.65;;;20.30;99.90;;;;;;6145545;23;20017;-89
2023/09/08 01:59:11;;;;;;;12.43;8.23;;;20.30;99.90;;;;;;6140197;23;20013;-90
2023/09/08 02:01:37;;;;;;;11.23;7.88;;;20.30;99.90;;;;;;6119641;23;20023;-90
2023/09/08 02:04:08;;;;;;;11.32;8.20;;;20.30;99.90;;;;;;6144332;23;20013;-89
2023/09/08 02:06:38;;;;;;;12.70;8.38;;;20.20;99.90;;;;;;6121214;23;20345;-91
2023/09/08 02:09:08;;;;;;;11.23;7.82;;;20.20;99.90;;;;;;6143710;23;20048;-90
2023/09/08 02:11:52;;;;;;;10.95;7.60;;;20.20;99.90;;;;;;6128872;23;20012;-90
2023/09/08 02:14:22;;;;;;;13.02;8.18;;;20.20;99.90;;;;;;6121642;23;20063;-90
2023/09/08 02:16:51;;;;;;;13.13;8.38;;;20.10;99.90;;;;;;6168661;23;20030;-89
2023/09/08 02:19:20;;;;;;;12.95;8.27;;;20.10;99.90;;;;;;6143486;23;20019;-89
2023/09/08 02:21:49;;;;;;;11.07;7.88;;;20.10;99.90;;;;;;6121086;23;20039;-89
2023/09/08 02:24:16;;;;;;;12.25;8.85;;;20.10;99.90;;;;;;6144055;23;20013;-89
2023/09/08 02:26:47;;;;;;;13.75;7.90;;;20.20;99.90;;;;;;6118308;23;20017;-90
2023/09/08 02:29:15;;;;;;;15.52;9.20;;;20.10;99.90;;;;;;6140935;23;20009;-90
2023/09/08 02:31:44;;;;;;;9.93;8.35;;;20.10;99.90;;;;;;6138086;23;20013;-90
2023/09/08 02:34:12;;;;;;;9.32;8.30;;;20.10;99.90;;;;;;6137386;23;20088;-89
2023/09/08 02:36:41;;;;;;;10.80;8.23;;;20.00;99.90;;;;;;6137890;23;20040;-89
2023/09/08 02:39:10;;;;;;;11.80;8.15;;;20.00;99.90;;;;;;6139089;23;20009;-90
2023/09/08 02:41:37;;;;;;;11.75;8.93;;;19.90;99.90;;;;;;6138014;23;20015;-90
2023/09/08 02:44:06;;;;;;;11.05;8.95;;;19.90;99.90;;;;;;6138413;23;20009;-90
2023/09/08 02:46:39;;;;;;;10.40;8.73;;;19.90;99.90;;;;;;6115770;23;20017;-90
2023/09/08 02:49:14;;;;;;;13.82;8.95;;;19.90;99.90;;;;;;6139632;23;20036;-89
2023/09/08 02:51:48;;;;;;;12.40;8.40;;;19.90;99.90;;;;;;6113968;23;20044;-90
2023/09/08 02:54:14;;;;;;;11.70;8.55;;;19.80;99.90;;;;;;6138457;23;20402;-90
2023/09/08 02:56:43;;;;;;;11.27;9.27;;;19.80;99.90;;;;;;6162721;23;20013;-90
2023/09/08 02:59:12;;;;;;;12.38;8.77;;;19.80;99.90;;;;;;6138341;23;20009;-90
2023/09/08 03:02:04;;;;;;;11.68;8.50;;;19.70;99.90;;;;;;6166136;23;20048;-90
2023/09/08 03:04:37;;;;;;;12.02;8.85;;;19.70;99.90;;;;;;6108714;23;20033;-90
2023/09/08 03:07:07;;;;;;;11.82;8.82;;;19.70;99.90;;;;;;6079158;23;20013;-90
2023/09/08 03:09:41;;;;;;;12.10;9.80;;;19.60;99.90;;;;;;6133420;23;20005;-91
2023/09/08 03:12:10;;;;;;;12.93;9.25;;;19.60;99.90;;;;;;6085977;23;20021;-90
2023/09/08 03:14:50;;;;;;;14.02;8.63;;;19.60;99.90;;;;;;6133426;23;20052;-90
2023/09/08 03:17:17;;;;;;;13.88;9.35;;;19.60;99.90;;;;;;6111582;23;20078;-90
2023/09/08 03:20:27;;;;;;;11.80;9.10;;;19.50;99.90;;;;;;6137952;23;20442;-91
2023/09/08 03:23:00;;;;;;;16.10;10.80;;;19.50;99.90;;;;;;6114832;23;20015;-90
2023/09/08 03:25:28;;;;;;;14.93;10.23;;;19.40;99.90;;;;;;6091536;23;20016;-89
2023/09/08 03:27:54;;;;;;;10.75;8.52;;;19.40;99.90;;;;;;6114145;23;20068;-90
2023/09/08 03:30:31;;;;;;;10.73;8.90;;;19.40;99.90;;;;;;6163478;23;20452;-90
2023/09/08 03:33:08;;;;;;;15.70;9.40;;;19.40;99.90;;;;;;6091685;23;20028;-91
2023/09/08 03:35:37;;;;;;;15.30;9.07;;;19.40;99.90;;;;;;6138537;23;20013;-89
2023/09/08 03:38:04;;;;;;;11.18;8.98;;;19.30;99.90;;;;;;6138074;23;20017;-89
2023/09/08 03:40:32;;;;;;;12.85;9.63;;;19.30;99.90;;;;;;6151420;23;20013;-89
2023/09/08 03:43:06;;;;;;;14.75;9.98;;;19.30;99.90;;;;;;6113454;23;20096;-89
2023/09/08 03:45:34;;;;;;;13.43;9.82;;;19.30;99.90;;;;;;6137889;23;20009;-89
2023/09/08 03:48:03;;;;;;;13.98;10.25;;;19.20;99.90;;;;;;6090939;23;20016;-89
2023/09/08 03:50:30;;;;;;;13.48;9.82;;;19.20;99.90;;;;;;6113665;23;20400;-88
2023/09/08 03:52:59;;;;;;;15.07;10.43;;;19.20;99.90;;;;;;6138164;23;20009;-89
2023/09/08 03:55:25;;;;;;;14.25;9.30;;;19.20;99.90;;;;;;6113574;23;20139;-89
2023/09/08 03:58:01;;;;;;;13.90;9.73;;;19.10;99.90;;;;;;6120158;23;20013;-90
2023/09/08 04:00:34;;;;;;;10.73;9.52;;;19.10;99.90;;;;;;6162292;23;20005;-90
2023/09/08 04:03:00;;;;;;;12.98;10.05;;;19.10;99.90;;;;;;6162249;23;20067;-90
2023/09/08 04:05:29;;;;;;;12.77;9.48;;;19.10;99.90;;;;;;6113027;23;20378;-89
2023/09/08 04:08:01;;;;;;;12.15;9.45;;;19.10;99.90;;;;;;6138111;23;20055;-90
2023/09/08 04:10:30;;;;;;;13.05;9.82;;;19.10;99.90;;;;;;6114668;23;20289;-90
2023/09/08 04:13:01;;;;;;;11.07;9.85;;;19.00;99.90;;;;;;6137645;23;20043;-90
2023/09/08 04:15:30;;;;;;;15.05;10.43;;;19.00;99.90;;;;;;6138630;23;20317;-90
2023/09/08 04:17:57;;;;;;;13.45;9.65;;;19.00;99.90;;;;;;6113826;23;20012;-90
2023/09/08 04:20:23;;;;;;;11.25;10.00;;;19.00;99.90;;;;;;6162373;23;20072;-89
2023/09/08 04:22:49;;;;;;;14.48;10.90;;;19.00;99.90;;;;;;6113103;23;20386;-89
2023/09/08 04:25:18;;;;;;;11.80;10.00;;;19.00;99.90;;;;;;6113448;23;20037;-89
2023/09/08 04:27:47;;;;;;;12.75;10.32;;;18.90;99.90;;;;;;6138288;23;20078;-89
2023/09/08 04:30:25;;;;;;;14.45;9.88;;;19.00;99.90;;;;;;6117410;23;20088;-89
2023/09/08 04:33:11;;;;;;;12.90;9.57;;;18.90;99.90;;;;;;6138973;23;20029;-90
2023/09/08 04:35:43;;;;;;;12.88;9.95;;;18.90;99.90;;;;;;6138379;23;20033;-90
2023/09/08 04:38:09;;;;;;;13.35;10.23;;;18.90;99.90;;;;;;6161578;23;20009;-89
2023/09/08 04:41:03;;;;;;;13.70;10.13;;;18.90;99.90;;;;;;6143070;23;20040;-89
2023/09/08 04:43:53;;;;;;;12.35;10.32;;;18.80;99.90;;;;;;6126443;23;20009;-90
2023/09/08 04:46:34;;;;;;;;;;;;;;;;;;;;;
2023/09/08 04:49:07;;;;;;;13.43;10.60;;;18.70;99.90;;;;;;6136924;23;20016;-90
2023/09/08 04:51:37;;;;;;;12.95;10.55;;;18.80;99.90;;;;;;6113243;23;20005;-90
2023/09/08 04:54:08;;;;;;;12.82;10.18;;;18.70;99.90;;;;;;6113009;23;20375;-90
2023/09/08 04:56:39;;;;;;;12.88;9.40;;;18.70;99.90;;;;;;6137863;23;20085;-89
2023/09/08 04:59:19;;;;;;;11.60;9.82;;;18.70;99.90;;;;;;6139270;23;20009;-90
2023/09/08 05:01:53;;;;;;;16.33;11.07;;;18.70;99.90;;;;;;6165044;23;20009;-90
2023/09/08 05:04:21;;;;;;;13.90;10.23;;;18.70;99.90;;;;;;6115962;23;20522;-90
2023/09/08 05:06:59;;;;;;;15.15;10.43;;;18.70;99.90;;;;;;6118488;23;20005;-91
2023/09/08 05:09:48;;;;;;;13.20;10.68;;;18.70;99.90;;;;;;6146547;23;20005;-89
2023/09/08 05:12:29;;;;;;;13.48;10.43;;;18.60;99.90;;;;;;6119389;23;20334;-92
2023/09/08 05:15:14;;;;;;;13.43;10.38;;;18.60;99.90;;;;;;6143349;23;20009;-91
2023/09/08 05:17:50;;;;;;;13.40;10.20;;;18.60;99.90;;;;;;6139381;23;20274;-91
2023/09/08 05:20:27;;;;;;;16.00;10.38;;;18.60;99.90;;;;;;6116009;23;20013;-90
2023/09/08 05:23:21;;;;;;;13.05;10.88;;;18.60;99.90;;;;;;6117659;23;20285;-91
2023/09/08 05:26:00;;;;;;;16.25;10.70;;;18.60;99.90;;;;;;6121170;23;20124;-91
2023/09/08 05:28:32;;;;;;;14.25;10.52;;;18.50;99.90;;;;;;6139930;23;20009;-92
2023/09/08 05:30:59;;;;;;;11.63;10.38;;;18.60;99.90;;;;;;6113631;23;20013;-91
2023/09/08 05:33:33;;;;;;;16.00;10.40;;;18.50;99.90;;;;;;6089228;23;20025;-91
2023/09/08 05:36:32;;;;;;;14.48;9.93;;;18.50;99.90;;;;;;6118243;23;20040;-93
2023/09/08 05:39:07;;;;;;;16.02;10.90;;;18.50;99.90;;;;;;6110840;23;20566;-91
2023/09/08 05:41:40;;;;;;;13.48;10.10;;;18.60;99.90;;;;;;6087688;23;20013;-91
2023/09/08 05:44:30;;;;;;;12.20;10.30;;;18.60;99.90;;;;;;6135705;23;20024;-92
2023/09/08 05:47:31;;;;;;;;;;;;;;;;;;;;;
2023/09/08 05:50:30;;;;;;;12.13;10.25;;;18.50;99.90;;;;;;6133945;23;20037;-93
2023/09/08 05:53:49;;;;;;;;;;;;;;;;;;;;;
2023/09/08 05:56:29;;;;;;;;;;;;;;;;;;;;;
2023/09/08 05:59:08;;;;;;;11.95;10.05;;;18.60;99.90;;;;;;6092076;23;20077;-92
2023/09/08 06:01:42;;;;;;;13.13;9.65;;;18.60;99.90;;;;;;6065544;23;20093;-92
2023/09/08 06:04:41;;;;;;;13.75;10.50;;;18.60;99.90;;;;;;6110087;23;20039;-92
2023/09/08 06:07:31;;;;;;;13.27;9.90;;;18.60;99.90;;;;;;6113010;23;20029;-91
2023/09/08 06:10:26;;;;;;;13.65;10.82;;;18.60;99.90;;;;;;6136271;23;20016;-91
2023/09/08 06:13:07;;;;;;;16.85;10.63;;;18.70;99.90;;;;;;6135535;23;20332;-92
2023/09/08 06:15:54;;;;;;;12.93;9.85;;;18.70;99.90;;;;;;6100493;23;20011;-92
2023/09/08 06:18:39;;;;;;;11.45;10.25;;;18.70;99.90;;;;;;6112377;23;20037;-92
2023/09/08 06:21:33;;;;;;;14.82;10.48;;;18.70;99.90;;;;;;6068189;23;20010;-91
2023/09/08 06:24:17;;;;;;;19.35;10.38;;;18.80;99.90;;;;;;6114266;23;20020;-92
2023/09/08 06:27:09;;;;;;;13.68;10.32;;;18.80;99.90;;;;;;6111009;23;20006;-91
2023/09/08 06:30:07;;;;;;;15.77;10.85;;;18.70;99.90;;;;;;6106553;23;20459;-92
2023/09/08 06:32:54;;;;;;;;;;;;;;;;;;;;;
2023/09/08 06:35:53;;;;;;;13.18;10.20;;;18.90;99.90;;;;;;6121575;23;20013;-92
2023/09/08 06:38:36;;;;;;;13.82;10.32;;;18.90;99.90;;;;;;6121154;23;20012;-91
2023/09/08 06:41:22;;;;;;;;;;;;;;;;;;;;;
2023/09/08 06:44:34;;;;;;;14.68;10.35;;;19.00;99.90;;;;;;6166874;23;20116;-92
2023/09/08 06:47:20;;;;;;;13.82;10.65;;;19.00;99.90;;;;;;6124449;23;20327;-93
2023/09/08 06:49:51;;;;;;;15.05;9.77;;;19.10;99.90;;;;;;6163590;23;20001;-92
2023/09/08 06:52:21;;;;;;;17.05;10.85;;;19.10;99.90;;;;;;6137908;23;20009;-92
2023/09/08 06:55:17;;;;;;;12.48;9.52;;;19.20;99.90;;;;;;6123782;23;20009;-94
2023/09/08 06:57:52;;;;;;;14.10;10.13;;;19.30;99.90;;;;;;6139044;23;20041;-93
2023/09/08 07:00:41;;;;;;;12.80;9.75;;;19.40;99.90;;;;;;6141691;23;20012;-93
2023/09/08 07:03:36;;;;;;;13.85;10.27;;;19.40;99.90;;;;;;6105053;23;20013;-94
2023/09/08 07:06:41;;;;;;;;;;;;;;;;;;;;;
2023/09/08 07:09:25;;;;;;;11.32;9.68;;;19.50;99.90;;;;;;6138775;23;20009;-93
2023/09/08 07:12:05;;;;;;;13.15;10.38;;;19.60;99.90;;;;;;6140082;23;20020;-93
2023/09/08 07:14:56;;;;;;;13.70;10.25;;;19.70;99.90;;;;;;6140359;23;20040;-93
2023/09/08 07:17:44;;;;;;;13.52;9.55;;;19.60;99.90;;;;;;6165335;23;20036;-93
2023/09/08 07:20:34;;;;;;;17.15;10.05;;;19.70;99.90;;;;;;6115318;23;20009;-93
2023/09/08 07:23:29;;;;;;;12.43;10.18;;;19.80;99.90;;;;;;6125411;23;20024;-94
2023/09/08 07:26:33;;;;;;;12.55;10.32;;;19.90;99.90;;;;;;6125571;23;20069;-95
2023/09/08 07:29:06;;;;;;;11.43;9.65;;;19.90;99.90;;;;;;6116619;23;20092;-94
2023/09/08 07:31:51;;;;;;;15.23;10.13;;;20.00;99.90;;;;;;6142905;23;20371;-95
2023/09/08 07:34:46;;;;;;;12.52;9.85;;;20.00;99.90;;;;;;6147055;23;20016;-94
2023/09/08 07:37:53;;;;;;;13.60;10.13;;;20.10;99.90;;;;;;6128192;23;20013;-95
2023/09/08 07:40:48;;;;;;;13.15;9.93;;;20.20;99.90;;;;;;6083340;23;20344;-94
2023/09/08 07:43:24;;;;;;;13.25;9.93;;;20.40;99.90;;;;;;6094378;23;20017;-94
2023/09/08 07:45:58;;;;;;;11.63;10.00;;;20.40;99.90;;;;;;6140010;23;20010;-94
2023/09/08 07:48:57;;;;;;;12.30;10.18;;;20.50;99.90;;;;;;6151334;23;20005;-94
2023/09/08 07:51:46;;;;;;;13.60;10.38;;;20.60;99.90;;;;;;6147441;23;20009;-94
2023/09/08 07:54:33;;;;;;;13.18;10.35;;;20.70;99.90;;;;;;6139150;23;20009;-94
2023/09/08 07:57:20;;;;;;;12.35;10.48;;;20.80;99.90;;;;;;6114642;23;20065;-94
2023/09/08 07:59:58;;;;;;;13.48;10.45;;;20.80;99.90;;;;;;6116866;23;20021;-94
2023/09/08 08:02:56;;;;;;;13.73;10.27;;;20.90;99.90;;;;;;6132135;23;20013;-94
2023/09/08 08:05:30;;;;;;;14.40;10.05;;;21.00;99.90;;;;;;6139220;23;20316;-95
2023/09/08 08:08:49;;;;;;;;;;;;;;;;;;;;;
2023/09/08 08:11:31;;;;;;;13.70;10.40;;;21.30;99.90;;;;;;6141092;23;20578;-95
2023/09/08 08:14:09;;;;;;;12.07;9.90;;;21.40;99.90;;;;;;6140860;23;20013;-93
2023/09/08 08:16:53;;;;;;;13.02;11.07;;;21.50;99.90;;;;;;6091954;23;20013;-94
2023/09/08 08:19:47;;;;;;;13.05;10.13;;;21.60;99.90;;;;;;6139568;23;20106;-92
2023/09/08 08:22:51;;;;;;;;;;;;;;;;;;;;;
2023/09/08 08:25:24;;;;;;;11.50;10.30;;;21.80;99.90;;;;;;6140358;23;20032;-93
2023/09/08 08:28:08;;;;;;;14.90;11.10;;;21.90;99.90;;;;;;6120566;23;20398;-94
2023/09/08 08:30:57;;;;;;;12.82;10.80;;;22.00;99.90;;;;;;6139044;23;20052;-94
2023/09/08 08:33:58;;;;;;;;;;;;;;;;;;;;;
2023/09/08 08:36:30;;;;;;;12.85;10.88;;;22.20;99.90;;;;;;6143885;23;20012;-94
2023/09/08 08:39:21;;;;;;;14.95;10.57;;;22.40;99.90;;;;;;6142462;23;20005;-94
2023/09/08 08:42:14;;;;;;;11.15;9.95;;;22.50;99.90;;;;;;6165127;23;20016;-95
2023/09/08 08:44:56;;;;;;;13.98;10.00;;;22.60;99.90;;;;;;6143109;23;20031;-93
2023/09/08 08:47:40;;;;;;;11.93;9.82;;;22.70;99.90;;;;;;6098997;23;20055;-93
2023/09/08 08:50:30;;;;;;;;;;;;;;;;;;;;;
2023/09/08 08:53:24;;;;;;;11.90;9.60;;;23.00;99.90;;;;;;6140809;23;20016;-93
2023/09/08 08:56:03;;;;;;;17.50;10.15;;;23.20;99.90;;;;;;6117663;23;20039;-92
2023/09/08 08:59:05;;;;;;;;;;;;;;;;;;;;;
2023/09/08 09:02:09;;;;;;;11.75;8.40;;;23.40;99.90;;;;;;6137500;23;20009;-94
2023/09/08 09:05:17;;;;;;;;;;;;;;;;;;;;;
2023/09/08 09:08:06;;;;;;;;;;;;;;;;;;;;;
2023/09/08 09:10:55;;;;;;;12.75;7.97;;;24.00;99.90;;;;;;6164629;23;20037;-94
2023/09/08 09:13:32;;;;;;;11.82;8.50;;;24.20;99.90;;;;;;6141009;23;20009;-94
2023/09/08 09:16:21;;;;;;;10.60;8.63;;;24.30;99.90;;;;;;6144273;23;20016;-96
2023/09/08 09:19:27;;;;;;;;;;;;;;;;;;;;;
2023/09/08 09:22:06;;;;;;;11.05;8.45;;;24.50;99.90;;;;;;6165294;23;20134;-95
2023/09/08 09:24:49;;;;;;;;;;;24.50;99.90;;;;;;6096223;23;20020;-96
2023/09/08 09:27:35;;;;;;;;;;;;;;;;;;;;;
2023/09/08 09:30:22;;;;;;;;;;;;;;;;;;;;;
2023/09/08 09:33:19;;;;;;;13.02;8.15;;;24.70;99.90;;;;;;6129788;23;20100;-95
2023/09/08 09:36:05;;;;;;;10.65;7.93;;;24.90;99.90;;;;;;6117257;23;20279;-94
2023/09/08 09:38:49;;;;;;;10.18;8.20;;;25.10;99.90;;;;;;6101564;23;20017;-94
2023/09/08 09:42:46;;;;;;;11.18;7.75;;;25.10;99.90;;;;;;6189235;23;20012;-95
2023/09/08 09:45:48;;;;;;;10.50;7.47;;;25.20;99.90;;;;;;6141163;23;20031;-91
2023/09/08 09:48:56;;;;;;;17.38;8.65;;;25.30;99.90;;;;;;6123166;23;20001;-95
2023/09/08 09:51:50;;;;;;;11.43;8.13;;;25.40;99.90;;;;;;6189167;23;20068;-93
2023/09/08 09:54:56;;;;;;;;;;;;;;;;;;;;;
2023/09/08 09:57:51;;;;;;;11.88;8.30;;;25.50;99.90;;;;;;6167280;23;20028;-93
2023/09/08 10:00:35;;;;;;;10.38;7.68;;;25.60;99.90;;;;;;6095633;23;20400;-95
2023/09/08 10:03:34;;;;;;;10.82;7.72;;;25.80;99.90;;;;;;6160408;23;20013;-94
2023/09/08 10:06:17;;;;;;;13.68;8.63;;;25.90;99.90;;;;;;6134393;23;20379;-94
2023/09/08 10:09:13;;;;;;;9.93;8.27;;;26.00;99.90;;;;;;6107079;23;20009;-92
2023/09/08 10:12:03;;;;;;;13.50;7.85;;;26.10;99.90;;;;;;6157424;23;20009;-94
2023/09/08 10:15:12;;;;;;;;;;;;;;;;;;;;;
2023/09/08 10:18:03;;;;;;;;;;;26.20;99.90;;;;;;6168058;23;20096;-93
2023/09/08 10:21:05;;;;;;;10.27;5.95;;;26.30;99.90;;;;;;6170770;23;19959;-93
2023/09/08 10:24:24;;;;;;;;;;;;;;;;;;;;;
2023/09/08 10:27:24;;;;;;;11.40;7.68;;;26.60;99.90;;;;;;6144004;23;20016;-93
2023/09/08 10:30:21;;;;;;;12.00;7.10;;;26.60;99.90;;;;;;6144162;23;20017;-93
2023/09/08 10:33:26;;;;;;;10.00;6.93;;;26.60;99.90;;;;;;6147368;23;20264;-93
2023/09/08 10:36:22;;;;;;;13.23;7.78;;;26.70;99.90;;;;;;6140121;23;20043;-93
2023/09/08 10:39:27;;;;;;;10.75;6.45;;;26.80;99.90;;;;;;6188538;23;20033;-93
2023/09/08 10:42:43;;;;;;;11.18;7.45;;;26.90;99.90;;;;;;6143173;23;20088;-93
2023/09/08 10:45:34;;;;;;;10.48;7.40;;;27.00;99.90;;;;;;6136989;23;20076;-91
2023/09/08 10:48:38;;;;;;;;;;;;;;;;;;;;;
2023/09/08 10:51:34;;;;;;;;;;;;;;;;;;;;;
2023/09/08 10:54:57;;;;;;;10.27;7.32;;;27.20;99.90;;;;;;6139507;23;20009;-93
2023/09/08 10:57:45;;;;;;;8.82;7.07;;;27.30;99.90;;;;;;6143155;23;20036;-93
2023/09/08 11:00:53;;;;;;;10.55;7.75;;;27.40;99.90;;;;;;6143061;23;20013;-94
2023/09/08 11:03:57;;;;;;;9.60;6.75;;;27.40;99.90;;;;;;6144564;23;20012;-94
2023/09/08 11:06:46;;;;;;;9.25;7.35;;;27.50;99.90;;;;;;6139584;23;20096;-94
2023/09/08 11:09:36;;;;;;;7.82;5.68;;;27.50;99.90;;;;;;6098132;23;20274;-93
2023/09/08 11:12:10;;;;;;;9.05;6.47;;;27.70;99.90;;;;;;6139964;23;20009;-92
2023/09/08 11:15:00;;;;;;;;;;;;;;;;;;;;;
2023/09/08 11:17:51;;;;;;;;;;;;;;;;;;;;;
2023/09/08 11:20:45;;;;;;;;;;;;;;;;;;;;;
2023/09/08 11:23:33;;;;;;;8.73;5.05;;;28.00;99.90;;;;;;6163643;23;20009;-92
2023/09/08 11:26:56;;;;;;;9.23;5.15;;;28.00;99.90;;;;;;6152445;23;20001;-92
2023/09/08 11:29:53;;;;;;;;;;;;;;;;;;;;;
2023/09/08 11:32:47;;;;;;;7.50;4.45;;;28.00;99.90;;;;;;6123189;23;20009;-91
2023/09/08 11:35:43;;;;;;;9.13;4.97;;;28.10;99.70;;;;;;6149633;23;20015;-92
2023/09/08 11:41:36;;;;;;;9.25;5.25;;;28.30;99.60;;;;;;6163282;23;20005;-92
2023/09/08 11:44:22;;;;;;;6.72;5.13;;;28.30;99.70;;;;;;6165156;23;20016;-92
2023/09/08 11:46:59;;;;;;;7.32;4.75;;;28.40;99.60;;;;;;6138767;23;20314;-92
2023/09/08 11:49:39;;;;;;;9.25;5.30;;;28.40;99.50;;;;;;6138865;23;20036;-92
2023/09/08 11:52:39;;;;;;;7.70;5.68;;;28.40;99.60;;;;;;6147509;23;20088;-91
2023/09/08 11:55:37;;;;;;;10.50;4.78;;;28.50;99.40;;;;;;6160716;23;20329;-92
2023/09/08 11:58:33;;;;;;;8.23;5.60;;;28.50;99.20;;;;;;6140179;23;20402;-92
2023/09/08 12:04:36;;;;;;;7.93;5.63;;;28.60;99.30;;;;;;6138350;23;20047;-93
2023/09/08 12:07:41;;;;;;;7.20;5.55;;;28.60;99.00;;;;;;6137496;23;20114;-91
2023/09/08 12:10:56;;;;;;;8.90;5.50;;;28.60;99.00;;;;;;6130406;23;20275;-93
2023/09/08 12:14:01;;;;;;;9.70;5.75;;;28.70;98.90;;;;;;6154249;23;20025;-92
2023/09/08 12:17:25;;;;;;;8.23;5.60;;;28.70;98.60;;;;;;6153090;23;20023;-92
2023/09/08 12:20:15;;;;;;;10.25;6.20;;;28.90;98.80;;;;;;6122112;23;20039;-91
2023/09/08 12:22:51;;;;;;;12.75;6.07;;;28.90;98.80;;;;;;6140656;23;20005;-91
2023/09/08 12:26:00;;;;;;;15.02;5.65;;;29.00;98.70;;;;;;6131945;23;20279;-94
2023/09/08 12:28:48;;;;;;;;;;;;;;;;;;;;;
2023/09/08 12:31:37;;;;;;;8.82;4.70;;;29.00;98.50;;;;;;6139009;23;20009;-92
2023/09/08 12:34:16;;;;;;;5.72;3.97;;;29.00;98.10;;;;;;6139091;23;20358;-92
2023/09/08 12:36:58;;;;;;;7.88;3.83;;;29.00;97.80;;;;;;6112016;23;20398;-91
2023/09/08 12:39:36;;;;;;;8.95;4.40;;;29.00;97.80;;;;;;6111810;23;20443;-92
2023/09/08 12:42:14;;;;;;;7.38;4.10;;;29.10;97.70;;;;;;6092417;23;20014;-92
2023/09/08 12:45:12;;;;;;;5.55;4.10;;;29.00;97.80;;;;;;6112987;23;20009;-91
2023/09/08 12:47:51;;;;;;;6.78;4.28;;;29.10;97.70;;;;;;6112570;23;20097;-91
2023/09/08 12:50:48;;;;;;;6.30;3.83;;;29.10;97.90;;;;;;6109806;23;20291;-93
2023/09/08 12:53:37;;;;;;;8.57;4.20;;;29.20;97.70;;;;;;6085994;23;20101;-91
2023/09/08 12:56:06;;;;;;;7.72;4.00;;;29.20;97.50;;;;;;6085004;23;20010;-91
2023/09/08 12:59:03;;;;;;;7.97;4.00;;;29.20;97.50;;;;;;6108377;23;20010;-92
2023/09/08 13:02:13;;;;;;;;;;;;;;;;;;;;;
2023/09/08 13:04:51;;;;;;;9.32;4.32;;;29.30;97.50;;;;;;6109762;23;20386;-92
2023/09/08 13:07:39;;;;;;;7.07;4.22;;;29.30;97.70;;;;;;6135182;23;20015;-91
2023/09/08 13:10:37;;;;;;;7.43;4.40;;;29.20;97.70;;;;;;6106591;23;20002;-91
2023/09/08 13:13:24;;;;;;;7.10;3.92;;;29.30;97.70;;;;;;6112427;23;20031;-91
2023/09/08 13:15:52;;;;;;;;;;;29.30;97.70;;;;;;6112446;23;20096;-90
2023/09/08 13:18:21;;;;;;;6.43;3.90;;;29.40;97.80;;;;;;6089767;23;19905;-92
2023/09/08 13:20:54;;;;;;;6.43;4.18;;;29.40;97.80;;;;;;6112644;23;20010;-91
2023/09/08 13:23:38;;;;;;;8.25;4.40;;;29.50;97.30;;;;;;6111946;23;20014;-92
2023/09/08 13:26:21;;;;;;;8.93;4.03;;;29.40;97.10;;;;;;6115544;23;20001;-91
2023/09/08 13:31:51;;;;;;;10.50;4.28;;;29.50;97.00;;;;;;6091576;23;20005;-91
2023/09/08 13:35:06;;;;;;;7.82;4.40;;;29.50;96.90;;;;;;6113516;23;20022;-92
2023/09/08 13:38:06;;;;;;;;;;;;;;;;;;;;;
2023/09/08 13:40:41;;;;;;;7.45;4.90;;;29.50;97.30;;;;;;6116809;23;20017;-92
2023/09/08 13:43:11;;;;;;;9.02;5.10;;;29.50;97.30;;;;;;6088396;23;20009;-92
2023/09/08 13:46:11;;;;;;;7.22;4.47;;;29.60;97.40;;;;;;6101464;23;20005;-92
2023/09/08 13:49:38;;;;;;;6.60;4.47;;;29.60;97.30;;;;;;6113111;23;20013;-93
2023/09/08 13:52:09;;;;;;;9.20;4.70;;;29.70;97.40;;;;;;6114953;23;20013;-90
2023/09/08 13:54:40;;;;;;;7.68;5.47;;;29.70;97.40;;;;;;6138336;23;20036;-92
2023/09/08 13:57:39;;;;;;;6.70;4.50;;;29.70;97.30;;;;;;6120227;23;20036;-92
2023/09/08 14:00:33;;;;;;;8.82;4.75;;;29.70;97.30;;;;;;6116514;23;20021;-94
2023/09/08 14:03:55;;;;;;;8.50;4.75;;;29.70;97.40;;;;;;6167950;23;20045;-93
2023/09/08 14:06:53;;;;;;;9.98;5.47;;;29.70;97.30;;;;;;6126807;23;20141;-92
2023/09/08 14:12:27;;;;;;;7.72;5.03;;;29.70;97.40;;;;;;6139297;23;20286;-91
2023/09/08 14:15:15;;;;;;;8.02;4.85;;;29.70;97.50;;;;;;6119386;23;20056;-91
2023/09/08 14:17:44;;;;;;;8.68;4.85;;;29.80;97.30;;;;;;6140319;23;20009;-91
2023/09/08 14:20:24;;;;;;;8.77;5.40;;;29.80;97.30;;;;;;6114967;23;20088;-90
2023/09/08 14:22:55;;;;;;;9.45;5.00;;;29.90;97.40;;;;;;6114782;23;20022;-91
2023/09/08 14:25:41;;;;;;;9.93;5.13;;;30.00;97.50;;;;;;6097166;23;20075;-91
2023/09/08 14:28:32;;;;;;;6.80;4.95;;;30.00;97.20;;;;;;6142648;23;20094;-93
2023/09/08 14:31:10;;;;;;;8.55;5.05;;;30.10;97.60;;;;;;6138716;23;20043;-92
2023/09/08 14:33:46;;;;;;;8.27;4.93;;;30.10;97.10;;;;;;6140884;23;20021;-90
2023/09/08 14:36:27;;;;;;;6.82;4.97;;;30.10;97.30;;;;;;6120498;23;20374;-92
2023/09/08 14:39:13;;;;;;;7.85;4.78;;;30.20;96.80;;;;;;6170854;23;20005;-92
2023/09/08 14:41:52;;;;;;;8.60;4.90;;;30.10;97.00;;;;;;6094228;23;20009;-93
2023/09/08 14:44:29;;;;;;;8.57;4.97;;;30.10;96.70;;;;;;6139068;23;20009;-93
2023/09/08 14:47:05;;;;;;;8.82;4.85;;;30.20;97.10;;;;;;6138818;23;20025;-92
2023/09/08 14:49:56;;;;;;;8.77;4.65;;;30.20;97.10;;;;;;6119000;23;20009;-91